sensor_id;sensor_type;location;lat;lon;timestamp;P1;durP1;ratioP1;P2;durP2;ratioP2
30677;SDS011;17437;47.188;8.896;2022-08-19T00:01:37;8.08;;;6.75;;
30677;SDS011;17437;47.188;8.896;2022-08-19T00:04:12;14.10;;;10.20;;
30677;SDS011;17437;47.188;8.896;2022-08-19T00:06:45;10.55;;;8.98;;
30677;SDS011;17437;47.188;8.896;2022-08-19T00:09:18;13.35;;;10.85;;
30677;SDS011;17437;47.188;8.896;2022-08-19T00:11:50;10.35;;;8.50;;
30677;SDS011;17437;47.188;8.896;2022-08-19T00:14:25;12.23;;;10.72;;
30677;SDS011;17437;47.188;8.896;2022-08-19T00:16:58;12.33;;;10.28;;
30677;SDS011;17437;47.188;8.896;2022-08-19T00:19:31;12.95;;;10.85;;
30677;SDS011;17437;47.188;8.896;2022-08-19T00:22:04;15.60;;;12.53;;
30677;SDS011;17437;47.188;8.896;2022-08-19T00:24:37;20.68;;;16.17;;
30677;SDS011;17437;47.188;8.896;2022-08-19T00:27:11;23.98;;;17.15;;
30677;SDS011;17437;47.188;8.896;2022-08-19T00:29:45;18.27;;;14.35;;
30677;SDS011;17437;47.188;8.896;2022-08-19T00:32:18;15.85;;;13.08;;
30677;SDS011;17437;47.188;8.896;2022-08-19T00:34:51;11.75;;;8.88;;
30677;SDS011;17437;47.188;8.896;2022-08-19T00:37:23;8.73;;;7.55;;
30677;SDS011;17437;47.188;8.896;2022-08-19T00:39:55;8.33;;;7.47;;
30677;SDS011;17437;47.188;8.896;2022-08-19T00:42:27;8.85;;;6.80;;
30677;SDS011;17437;47.188;8.896;2022-08-19T00:44:58;9.98;;;7.08;;
30677;SDS011;17437;47.188;8.896;2022-08-19T00:47:29;8.95;;;8.05;;
30677;SDS011;17437;47.188;8.896;2022-08-19T00:50:01;11.00;;;8.85;;
30677;SDS011;17437;47.188;8.896;2022-08-19T00:52:33;11.55;;;9.33;;
30677;SDS011;17437;47.188;8.896;2022-08-19T00:55:07;10.98;;;9.80;;
30677;SDS011;17437;47.188;8.896;2022-08-19T00:57:42;14.15;;;10.55;;
30677;SDS011;17437;47.188;8.896;2022-08-19T01:00:16;12.95;;;10.80;;
30677;SDS011;17437;47.188;8.896;2022-08-19T01:02:48;11.75;;;10.58;;
30677;SDS011;17437;47.188;8.896;2022-08-19T01:05:21;15.15;;;10.93;;
30677;SDS011;17437;47.188;8.896;2022-08-19T01:07:56;17.40;;;13.15;;
30677;SDS011;17437;47.188;8.896;2022-08-19T01:10:31;13.70;;;11.05;;
30677;SDS011;17437;47.188;8.896;2022-08-19T01:13:04;15.13;;;12.37;;
30677;SDS011;17437;47.188;8.896;2022-08-19T01:15:38;18.35;;;14.70;;
30677;SDS011;17437;47.188;8.896;2022-08-19T01:18:13;25.08;;;16.90;;
30677;SDS011;17437;47.188;8.896;2022-08-19T01:20:49;21.97;;;15.93;;
30677;SDS011;17437;47.188;8.896;2022-08-19T01:23:23;30.68;;;20.37;;
30677;SDS011;17437;47.188;8.896;2022-08-19T01:25:56;34.58;;;23.35;;
30677;SDS011;17437;47.188;8.896;2022-08-19T01:28:28;27.77;;;19.90;;
30677;SDS011;17437;47.188;8.896;2022-08-19T01:31:01;27.67;;;18.37;;
30677;SDS011;17437;47.188;8.896;2022-08-19T01:33:34;21.62;;;15.85;;
30677;SDS011;17437;47.188;8.896;2022-08-19T01:36:07;19.15;;;13.60;;
30677;SDS011;17437;47.188;8.896;2022-08-19T01:38:42;20.02;;;13.70;;
30677;SDS011;17437;47.188;8.896;2022-08-19T01:41:16;15.78;;;12.35;;
30677;SDS011;17437;47.188;8.896;2022-08-19T01:43:48;14.23;;;11.88;;
30677;SDS011;17437;47.188;8.896;2022-08-19T01:46:22;15.72;;;10.65;;
30677;SDS011;17437;47.188;8.896;2022-08-19T01:48:54;14.53;;;10.93;;
30677;SDS011;17437;47.188;8.896;2022-08-19T01:51:25;15.13;;;11.70;;
30677;SDS011;17437;47.188;8.896;2022-08-19T01:53:58;17.25;;;12.73;;
30677;SDS011;17437;47.188;8.896;2022-08-19T01:56:30;19.42;;;14.75;;
30677;SDS011;17437;47.188;8.896;2022-08-19T01:59:03;19.75;;;14.65;;
30677;SDS011;17437;47.188;8.896;2022-08-19T02:01:36;18.82;;;14.20;;
30677;SDS011;17437;47.188;8.896;2022-08-19T02:04:08;16.97;;;12.68;;
30677;SDS011;17437;47.188;8.896;2022-08-19T02:06:39;18.00;;;13.70;;
30677;SDS011;17437;47.188;8.896;2022-08-19T02:09:10;19.62;;;14.58;;
30677;SDS011;17437;47.188;8.896;2022-08-19T02:11:42;24.40;;;15.68;;
30677;SDS011;17437;47.188;8.896;2022-08-19T02:14:13;22.02;;;16.37;;
30677;SDS011;17437;47.188;8.896;2022-08-19T02:16:44;27.27;;;17.92;;
30677;SDS011;17437;47.188;8.896;2022-08-19T02:19:16;26.20;;;17.90;;
30677;SDS011;17437;47.188;8.896;2022-08-19T02:21:48;28.90;;;20.25;;
30677;SDS011;17437;47.188;8.896;2022-08-19T02:24:19;29.52;;;19.87;;
30677;SDS011;17437;47.188;8.896;2022-08-19T02:26:50;31.20;;;20.30;;
30677;SDS011;17437;47.188;8.896;2022-08-19T02:29:22;28.45;;;20.25;;
30677;SDS011;17437;47.188;8.896;2022-08-19T02:31:54;27.60;;;19.95;;
30677;SDS011;17437;47.188;8.896;2022-08-19T02:34:26;31.35;;;19.73;;
30677;SDS011;17437;47.188;8.896;2022-08-19T02:36:58;37.48;;;18.23;;
30677;SDS011;17437;47.188;8.896;2022-08-19T02:39:31;21.90;;;15.32;;
30677;SDS011;17437;47.188;8.896;2022-08-19T02:42:04;22.17;;;15.48;;
30677;SDS011;17437;47.188;8.896;2022-08-19T02:44:35;25.62;;;18.20;;
30677;SDS011;17437;47.188;8.896;2022-08-19T02:47:07;23.57;;;15.98;;
30677;SDS011;17437;47.188;8.896;2022-08-19T02:49:39;21.33;;;15.60;;
30677;SDS011;17437;47.188;8.896;2022-08-19T02:52:11;20.50;;;15.60;;
30677;SDS011;17437;47.188;8.896;2022-08-19T02:54:43;19.90;;;14.73;;
30677;SDS011;17437;47.188;8.896;2022-08-19T02:57:14;25.32;;;16.62;;
30677;SDS011;17437;47.188;8.896;2022-08-19T02:59:46;21.42;;;16.20;;
30677;SDS011;17437;47.188;8.896;2022-08-19T03:02:18;20.85;;;14.40;;
30677;SDS011;17437;47.188;8.896;2022-08-19T03:04:49;17.87;;;13.25;;
30677;SDS011;17437;47.188;8.896;2022-08-19T03:07:21;17.50;;;13.45;;
30677;SDS011;17437;47.188;8.896;2022-08-19T03:09:52;18.32;;;12.63;;
30677;SDS011;17437;47.188;8.896;2022-08-19T03:12:24;9.00;;;6.05;;
30677;SDS011;17437;47.188;8.896;2022-08-19T03:14:55;24.55;;;15.43;;
30677;SDS011;17437;47.188;8.896;2022-08-19T03:17:26;28.55;;;17.55;;
30677;SDS011;17437;47.188;8.896;2022-08-19T03:19:58;23.10;;;16.45;;
30677;SDS011;17437;47.188;8.896;2022-08-19T03:22:30;20.68;;;15.53;;
30677;SDS011;17437;47.188;8.896;2022-08-19T03:25:01;20.75;;;13.80;;
30677;SDS011;17437;47.188;8.896;2022-08-19T03:27:33;16.95;;;13.95;;
30677;SDS011;17437;47.188;8.896;2022-08-19T03:30:06;22.15;;;13.65;;
30677;SDS011;17437;47.188;8.896;2022-08-19T03:32:40;15.00;;;11.55;;
30677;SDS011;17437;47.188;8.896;2022-08-19T03:35:14;24.75;;;16.02;;
30677;SDS011;17437;47.188;8.896;2022-08-19T03:37:46;24.52;;;15.23;;
30677;SDS011;17437;47.188;8.896;2022-08-19T03:40:17;20.10;;;14.20;;
30677;SDS011;17437;47.188;8.896;2022-08-19T03:42:49;21.57;;;15.75;;
30677;SDS011;17437;47.188;8.896;2022-08-19T03:45:20;17.50;;;12.13;;
30677;SDS011;17437;47.188;8.896;2022-08-19T03:47:51;16.12;;;12.00;;
30677;SDS011;17437;47.188;8.896;2022-08-19T03:50:24;14.87;;;10.03;;
30677;SDS011;17437;47.188;8.896;2022-08-19T03:52:56;21.70;;;12.37;;
30677;SDS011;17437;47.188;8.896;2022-08-19T03:55:27;15.75;;;10.80;;
30677;SDS011;17437;47.188;8.896;2022-08-19T03:57:59;10.90;;;8.83;;
30677;SDS011;17437;47.188;8.896;2022-08-19T04:00:30;14.58;;;11.10;;
30677;SDS011;17437;47.188;8.896;2022-08-19T04:03:02;15.35;;;10.95;;
30677;SDS011;17437;47.188;8.896;2022-08-19T04:05:33;13.13;;;9.60;;
30677;SDS011;17437;47.188;8.896;2022-08-19T04:08:06;21.00;;;15.65;;
30677;SDS011;17437;47.188;8.896;2022-08-19T04:10:39;13.50;;;10.40;;
30677;SDS011;17437;47.188;8.896;2022-08-19T04:13:12;14.45;;;11.38;;
30677;SDS011;17437;47.188;8.896;2022-08-19T04:15:44;13.32;;;10.05;;
30677;SDS011;17437;47.188;8.896;2022-08-19T04:18:16;11.78;;;8.40;;
30677;SDS011;17437;47.188;8.896;2022-08-19T04:20:47;12.30;;;8.60;;
30677;SDS011;17437;47.188;8.896;2022-08-19T04:23:19;14.65;;;11.35;;
30677;SDS011;17437;47.188;8.896;2022-08-19T04:25:51;12.60;;;9.53;;
30677;SDS011;17437;47.188;8.896;2022-08-19T04:28:23;10.53;;;8.60;;
30677;SDS011;17437;47.188;8.896;2022-08-19T04:30:55;12.43;;;9.03;;
30677;SDS011;17437;47.188;8.896;2022-08-19T04:33:27;9.50;;;7.62;;
30677;SDS011;17437;47.188;8.896;2022-08-19T04:35:58;11.03;;;8.75;;
30677;SDS011;17437;47.188;8.896;2022-08-19T04:38:30;9.20;;;7.45;;
30677;SDS011;17437;47.188;8.896;2022-08-19T04:41:02;9.20;;;7.50;;
30677;SDS011;17437;47.188;8.896;2022-08-19T04:43:52;10.48;;;8.33;;
30677;SDS011;17437;47.188;8.896;2022-08-19T04:46:23;11.57;;;8.23;;
30677;SDS011;17437;47.188;8.896;2022-08-19T04:48:56;9.28;;;7.47;;
30677;SDS011;17437;47.188;8.896;2022-08-19T04:51:30;9.88;;;7.95;;
30677;SDS011;17437;47.188;8.896;2022-08-19T04:54:02;16.20;;;11.63;;
30677;SDS011;17437;47.188;8.896;2022-08-19T04:56:34;15.25;;;11.35;;
30677;SDS011;17437;47.188;8.896;2022-08-19T04:59:06;14.75;;;11.18;;
30677;SDS011;17437;47.188;8.896;2022-08-19T05:01:38;14.55;;;9.53;;
30677;SDS011;17437;47.188;8.896;2022-08-19T05:04:09;10.38;;;8.48;;
30677;SDS011;17437;47.188;8.896;2022-08-19T05:06:41;9.25;;;8.05;;
30677;SDS011;17437;47.188;8.896;2022-08-19T05:09:13;13.70;;;9.98;;
30677;SDS011;17437;47.188;8.896;2022-08-19T05:11:45;10.80;;;8.63;;
30677;SDS011;17437;47.188;8.896;2022-08-19T05:14:18;8.95;;;6.95;;
30677;SDS011;17437;47.188;8.896;2022-08-19T05:16:50;8.63;;;6.60;;
30677;SDS011;17437;47.188;8.896;2022-08-19T05:19:23;7.08;;;6.25;;
30677;SDS011;17437;47.188;8.896;2022-08-19T05:22:12;8.90;;;7.97;;
30677;SDS011;17437;47.188;8.896;2022-08-19T05:25:05;8.83;;;6.05;;
30677;SDS011;17437;47.188;8.896;2022-08-19T05:27:41;8.33;;;5.70;;
30677;SDS011;17437;47.188;8.896;2022-08-19T05:30:13;5.83;;;5.15;;
30677;SDS011;17437;47.188;8.896;2022-08-19T05:32:45;5.30;;;4.62;;
30677;SDS011;17437;47.188;8.896;2022-08-19T05:35:16;6.30;;;4.08;;
30677;SDS011;17437;47.188;8.896;2022-08-19T05:37:48;5.00;;;3.70;;
30677;SDS011;17437;47.188;8.896;2022-08-19T05:40:21;6.65;;;4.30;;
30677;SDS011;17437;47.188;8.896;2022-08-19T05:42:54;5.17;;;3.08;;
30677;SDS011;17437;47.188;8.896;2022-08-19T05:45:25;5.70;;;4.12;;
30677;SDS011;17437;47.188;8.896;2022-08-19T05:47:57;8.15;;;5.12;;
30677;SDS011;17437;47.188;8.896;2022-08-19T05:50:28;5.17;;;3.98;;
30677;SDS011;17437;47.188;8.896;2022-08-19T05:53:00;6.22;;;4.30;;
30677;SDS011;17437;47.188;8.896;2022-08-19T05:55:32;7.87;;;4.67;;
30677;SDS011;17437;47.188;8.896;2022-08-19T05:58:05;6.15;;;4.42;;
30677;SDS011;17437;47.188;8.896;2022-08-19T06:00:37;8.60;;;5.80;;
30677;SDS011;17437;47.188;8.896;2022-08-19T06:03:09;8.28;;;6.00;;
30677;SDS011;17437;47.188;8.896;2022-08-19T06:05:41;12.73;;;8.10;;
30677;SDS011;17437;47.188;8.896;2022-08-19T06:08:14;14.23;;;9.73;;
30677;SDS011;17437;47.188;8.896;2022-08-19T06:10:47;15.25;;;11.08;;
30677;SDS011;17437;47.188;8.896;2022-08-19T06:13:18;14.05;;;10.08;;
30677;SDS011;17437;47.188;8.896;2022-08-19T06:15:51;24.15;;;15.55;;
30677;SDS011;17437;47.188;8.896;2022-08-19T06:18:23;17.70;;;12.65;;
30677;SDS011;17437;47.188;8.896;2022-08-19T06:20:54;18.50;;;13.70;;
30677;SDS011;17437;47.188;8.896;2022-08-19T06:23:25;19.45;;;13.13;;
30677;SDS011;17437;47.188;8.896;2022-08-19T06:25:57;24.60;;;13.50;;
30677;SDS011;17437;47.188;8.896;2022-08-19T06:28:29;20.40;;;12.68;;
30677;SDS011;17437;47.188;8.896;2022-08-19T06:31:06;19.05;;;14.50;;
30677;SDS011;17437;47.188;8.896;2022-08-19T06:33:38;20.45;;;13.60;;
30677;SDS011;17437;47.188;8.896;2022-08-19T06:36:16;24.25;;;16.60;;
30677;SDS011;17437;47.188;8.896;2022-08-19T06:38:50;31.42;;;16.97;;
30677;SDS011;17437;47.188;8.896;2022-08-19T06:41:21;31.95;;;21.42;;
30677;SDS011;17437;47.188;8.896;2022-08-19T06:43:54;32.23;;;22.13;;
30677;SDS011;17437;47.188;8.896;2022-08-19T06:46:31;22.52;;;15.40;;
30677;SDS011;17437;47.188;8.896;2022-08-19T06:49:03;15.63;;;12.68;;
30677;SDS011;17437;47.188;8.896;2022-08-19T06:51:39;18.75;;;12.93;;
30677;SDS011;17437;47.188;8.896;2022-08-19T06:54:12;14.23;;;11.75;;
30677;SDS011;17437;47.188;8.896;2022-08-19T06:56:45;20.75;;;14.55;;
30677;SDS011;17437;47.188;8.896;2022-08-19T06:59:17;23.62;;;14.35;;
30677;SDS011;17437;47.188;8.896;2022-08-19T07:01:51;18.60;;;13.53;;
30677;SDS011;17437;47.188;8.896;2022-08-19T07:04:25;19.12;;;12.13;;
30677;SDS011;17437;47.188;8.896;2022-08-19T07:06:59;16.37;;;11.95;;
30677;SDS011;17437;47.188;8.896;2022-08-19T07:09:36;17.35;;;13.48;;
30677;SDS011;17437;47.188;8.896;2022-08-19T07:12:10;15.10;;;11.48;;
30677;SDS011;17437;47.188;8.896;2022-08-19T07:14:44;19.87;;;14.43;;
30677;SDS011;17437;47.188;8.896;2022-08-19T07:17:15;18.15;;;11.85;;
30677;SDS011;17437;47.188;8.896;2022-08-19T07:19:49;19.30;;;13.48;;
30677;SDS011;17437;47.188;8.896;2022-08-19T07:22:22;17.42;;;12.07;;
30677;SDS011;17437;47.188;8.896;2022-08-19T07:24:54;26.85;;;17.57;;
30677;SDS011;17437;47.188;8.896;2022-08-19T07:27:25;28.12;;;21.52;;
30677;SDS011;17437;47.188;8.896;2022-08-19T07:32:40;17.45;;;13.32;;
30677;SDS011;17437;47.188;8.896;2022-08-19T07:35:11;20.57;;;14.15;;
30677;SDS011;17437;47.188;8.896;2022-08-19T07:37:43;19.57;;;13.85;;
30677;SDS011;17437;47.188;8.896;2022-08-19T07:40:15;21.50;;;14.33;;
30677;SDS011;17437;47.188;8.896;2022-08-19T07:42:46;30.60;;;19.85;;
30677;SDS011;17437;47.188;8.896;2022-08-19T07:45:18;45.03;;;25.50;;
30677;SDS011;17437;47.188;8.896;2022-08-19T07:47:49;39.55;;;24.00;;
30677;SDS011;17437;47.188;8.896;2022-08-19T07:50:21;35.78;;;23.85;;
30677;SDS011;17437;47.188;8.896;2022-08-19T07:52:53;39.88;;;27.75;;
30677;SDS011;17437;47.188;8.896;2022-08-19T07:55:25;29.77;;;20.95;;
30677;SDS011;17437;47.188;8.896;2022-08-19T07:57:59;24.43;;;19.23;;
30677;SDS011;17437;47.188;8.896;2022-08-19T08:00:32;28.60;;;20.62;;
30677;SDS011;17437;47.188;8.896;2022-08-19T08:03:05;27.85;;;19.15;;
30677;SDS011;17437;47.188;8.896;2022-08-19T08:05:38;25.85;;;20.15;;
30677;SDS011;17437;47.188;8.896;2022-08-19T08:08:27;24.05;;;19.85;;
30677;SDS011;17437;47.188;8.896;2022-08-19T08:11:17;27.22;;;20.02;;
30677;SDS011;17437;47.188;8.896;2022-08-19T08:13:52;23.98;;;18.17;;
30677;SDS011;17437;47.188;8.896;2022-08-19T08:16:25;22.40;;;17.00;;
30677;SDS011;17437;47.188;8.896;2022-08-19T08:18:58;21.45;;;16.73;;
30677;SDS011;17437;47.188;8.896;2022-08-19T08:21:29;24.18;;;17.85;;
30677;SDS011;17437;47.188;8.896;2022-08-19T08:24:01;19.73;;;16.42;;
30677;SDS011;17437;47.188;8.896;2022-08-19T08:26:33;19.67;;;15.23;;
30677;SDS011;17437;47.188;8.896;2022-08-19T08:29:05;18.62;;;14.78;;
30677;SDS011;17437;47.188;8.896;2022-08-19T08:31:40;16.20;;;14.25;;
30677;SDS011;17437;47.188;8.896;2022-08-19T08:34:13;16.07;;;14.28;;
30677;SDS011;17437;47.188;8.896;2022-08-19T08:36:45;17.67;;;15.78;;
30677;SDS011;17437;47.188;8.896;2022-08-19T08:39:17;14.40;;;12.80;;
30677;SDS011;17437;47.188;8.896;2022-08-19T08:41:51;20.55;;;16.55;;
30677;SDS011;17437;47.188;8.896;2022-08-19T08:44:27;20.45;;;15.93;;
30677;SDS011;17437;47.188;8.896;2022-08-19T08:47:01;18.62;;;15.83;;
30677;SDS011;17437;47.188;8.896;2022-08-19T08:49:40;17.48;;;14.60;;
30677;SDS011;17437;47.188;8.896;2022-08-19T08:52:15;15.10;;;12.00;;
30677;SDS011;17437;47.188;8.896;2022-08-19T08:54:49;11.90;;;10.20;;
30677;SDS011;17437;47.188;8.896;2022-08-19T08:57:25;14.45;;;10.82;;
30677;SDS011;17437;47.188;8.896;2022-08-19T09:00:03;10.00;;;9.00;;
30677;SDS011;17437;47.188;8.896;2022-08-19T09:02:39;12.28;;;10.50;;
30677;SDS011;17437;47.188;8.896;2022-08-19T09:05:11;11.30;;;9.98;;
30677;SDS011;17437;47.188;8.896;2022-08-19T09:07:45;14.40;;;10.90;;
30677;SDS011;17437;47.188;8.896;2022-08-19T09:10:21;13.43;;;10.65;;
30677;SDS011;17437;47.188;8.896;2022-08-19T09:12:56;12.75;;;11.43;;
30677;SDS011;17437;47.188;8.896;2022-08-19T09:15:29;13.20;;;11.38;;
30677;SDS011;17437;47.188;8.896;2022-08-19T09:18:04;15.83;;;11.00;;
30677;SDS011;17437;47.188;8.896;2022-08-19T09:20:39;12.90;;;11.43;;
30677;SDS011;17437;47.188;8.896;2022-08-19T09:23:11;13.05;;;11.03;;
30677;SDS011;17437;47.188;8.896;2022-08-19T09:25:42;13.20;;;10.85;;
30677;SDS011;17437;47.188;8.896;2022-08-19T09:28:14;14.93;;;11.43;;
30677;SDS011;17437;47.188;8.896;2022-08-19T09:30:47;16.12;;;12.15;;
30677;SDS011;17437;47.188;8.896;2022-08-19T09:33:21;15.32;;;11.93;;
30677;SDS011;17437;47.188;8.896;2022-08-19T09:36:01;18.55;;;13.75;;
30677;SDS011;17437;47.188;8.896;2022-08-19T09:38:37;19.65;;;15.00;;
30677;SDS011;17437;47.188;8.896;2022-08-19T09:41:12;17.23;;;14.87;;
30677;SDS011;17437;47.188;8.896;2022-08-19T09:43:47;19.52;;;14.50;;
30677;SDS011;17437;47.188;8.896;2022-08-19T09:46:21;17.65;;;13.98;;
30677;SDS011;17437;47.188;8.896;2022-08-19T09:48:56;19.45;;;14.15;;
30677;SDS011;17437;47.188;8.896;2022-08-19T09:51:30;19.60;;;14.45;;
30677;SDS011;17437;47.188;8.896;2022-08-19T09:54:03;16.87;;;13.68;;
30677;SDS011;17437;47.188;8.896;2022-08-19T09:56:36;19.48;;;15.55;;
30677;SDS011;17437;47.188;8.896;2022-08-19T09:59:09;17.75;;;14.10;;
30677;SDS011;17437;47.188;8.896;2022-08-19T10:01:41;17.55;;;13.95;;
30677;SDS011;17437;47.188;8.896;2022-08-19T10:04:13;19.40;;;15.32;;
30677;SDS011;17437;47.188;8.896;2022-08-19T10:06:47;20.70;;;16.20;;
30677;SDS011;17437;47.188;8.896;2022-08-19T10:09:21;20.00;;;14.93;;
30677;SDS011;17437;47.188;8.896;2022-08-19T10:11:55;17.12;;;13.88;;
30677;SDS011;17437;47.188;8.896;2022-08-19T10:14:30;19.45;;;15.93;;
30677;SDS011;17437;47.188;8.896;2022-08-19T10:17:02;20.65;;;15.88;;
30677;SDS011;17437;47.188;8.896;2022-08-19T10:19:36;15.95;;;14.28;;
30677;SDS011;17437;47.188;8.896;2022-08-19T10:22:07;17.10;;;13.03;;
30677;SDS011;17437;47.188;8.896;2022-08-19T10:24:41;19.30;;;12.80;;
30677;SDS011;17437;47.188;8.896;2022-08-19T10:27:12;14.15;;;11.60;;
30677;SDS011;17437;47.188;8.896;2022-08-19T10:29:44;15.93;;;13.43;;
30677;SDS011;17437;47.188;8.896;2022-08-19T10:32:16;15.50;;;11.97;;
30677;SDS011;17437;47.188;8.896;2022-08-19T10:34:51;16.82;;;13.00;;
30677;SDS011;17437;47.188;8.896;2022-08-19T10:37:24;13.98;;;11.12;;
30677;SDS011;17437;47.188;8.896;2022-08-19T10:39:58;17.12;;;12.00;;
30677;SDS011;17437;47.188;8.896;2022-08-19T10:42:31;15.10;;;12.35;;
30677;SDS011;17437;47.188;8.896;2022-08-19T10:45:04;14.23;;;11.28;;
30677;SDS011;17437;47.188;8.896;2022-08-19T10:47:38;15.55;;;12.93;;
30677;SDS011;17437;47.188;8.896;2022-08-19T10:50:10;15.38;;;12.47;;
30677;SDS011;17437;47.188;8.896;2022-08-19T10:53:02;15.00;;;13.30;;
30677;SDS011;17437;47.188;8.896;2022-08-19T10:55:35;19.62;;;13.10;;
30677;SDS011;17437;47.188;8.896;2022-08-19T10:58:24;16.73;;;13.83;;
30677;SDS011;17437;47.188;8.896;2022-08-19T11:00:56;20.08;;;13.58;;
30677;SDS011;17437;47.188;8.896;2022-08-19T11:03:29;19.90;;;13.95;;
30677;SDS011;17437;47.188;8.896;2022-08-19T11:06:01;15.55;;;13.35;;
30677;SDS011;17437;47.188;8.896;2022-08-19T11:08:34;16.20;;;12.70;;
30677;SDS011;17437;47.188;8.896;2022-08-19T11:11:07;15.98;;;14.25;;
30677;SDS011;17437;47.188;8.896;2022-08-19T11:13:40;14.53;;;12.65;;
30677;SDS011;17437;47.188;8.896;2022-08-19T11:16:13;18.32;;;13.65;;
30677;SDS011;17437;47.188;8.896;2022-08-19T11:18:46;18.17;;;14.13;;
30677;SDS011;17437;47.188;8.896;2022-08-19T11:21:21;17.05;;;13.28;;
30677;SDS011;17437;47.188;8.896;2022-08-19T11:23:55;14.38;;;12.50;;
30677;SDS011;17437;47.188;8.896;2022-08-19T11:26:28;19.37;;;15.20;;
30677;SDS011;17437;47.188;8.896;2022-08-19T11:29:00;17.77;;;14.70;;
30677;SDS011;17437;47.188;8.896;2022-08-19T11:31:33;17.85;;;15.78;;
30677;SDS011;17437;47.188;8.896;2022-08-19T11:34:08;18.80;;;15.38;;
30677;SDS011;17437;47.188;8.896;2022-08-19T11:36:43;15.72;;;14.05;;
30677;SDS011;17437;47.188;8.896;2022-08-19T11:39:17;16.97;;;15.20;;
30677;SDS011;17437;47.188;8.896;2022-08-19T11:41:50;16.02;;;12.93;;
30677;SDS011;17437;47.188;8.896;2022-08-19T11:44:21;15.72;;;12.80;;
30677;SDS011;17437;47.188;8.896;2022-08-19T11:46:54;15.05;;;12.78;;
30677;SDS011;17437;47.188;8.896;2022-08-19T11:49:28;14.07;;;11.63;;
30677;SDS011;17437;47.188;8.896;2022-08-19T11:51:59;15.20;;;12.50;;
30677;SDS011;17437;47.188;8.896;2022-08-19T11:54:31;13.90;;;11.35;;
30677;SDS011;17437;47.188;8.896;2022-08-19T11:57:02;17.30;;;13.85;;
30677;SDS011;17437;47.188;8.896;2022-08-19T11:59:34;15.68;;;13.75;;
30677;SDS011;17437;47.188;8.896;2022-08-19T12:02:05;15.80;;;13.80;;
30677;SDS011;17437;47.188;8.896;2022-08-19T12:04:37;15.80;;;13.38;;
30677;SDS011;17437;47.188;8.896;2022-08-19T12:07:08;19.98;;;15.08;;
30677;SDS011;17437;47.188;8.896;2022-08-19T12:09:40;19.95;;;15.88;;
30677;SDS011;17437;47.188;8.896;2022-08-19T12:12:13;17.48;;;14.78;;
30677;SDS011;17437;47.188;8.896;2022-08-19T12:14:44;20.65;;;17.42;;
30677;SDS011;17437;47.188;8.896;2022-08-19T12:17:16;22.07;;;17.67;;
30677;SDS011;17437;47.188;8.896;2022-08-19T12:19:47;20.62;;;16.55;;
30677;SDS011;17437;47.188;8.896;2022-08-19T12:22:19;20.77;;;18.50;;
30677;SDS011;17437;47.188;8.896;2022-08-19T12:24:50;20.12;;;17.42;;
30677;SDS011;17437;47.188;8.896;2022-08-19T12:27:22;23.12;;;19.27;;
30677;SDS011;17437;47.188;8.896;2022-08-19T12:29:55;25.35;;;19.23;;
30677;SDS011;17437;47.188;8.896;2022-08-19T12:32:27;24.27;;;19.90;;
30677;SDS011;17437;47.188;8.896;2022-08-19T12:34:58;28.42;;;20.90;;
30677;SDS011;17437;47.188;8.896;2022-08-19T12:37:30;30.25;;;21.42;;
30677;SDS011;17437;47.188;8.896;2022-08-19T12:40:02;24.05;;;17.77;;
30677;SDS011;17437;47.188;8.896;2022-08-19T12:42:35;22.45;;;18.98;;
30677;SDS011;17437;47.188;8.896;2022-08-19T12:45:07;23.05;;;19.40;;
30677;SDS011;17437;47.188;8.896;2022-08-19T12:47:40;22.90;;;18.50;;
30677;SDS011;17437;47.188;8.896;2022-08-19T12:50:13;25.20;;;19.50;;
30677;SDS011;17437;47.188;8.896;2022-08-19T12:52:45;21.70;;;18.62;;
30677;SDS011;17437;47.188;8.896;2022-08-19T12:55:18;21.52;;;18.30;;
30677;SDS011;17437;47.188;8.896;2022-08-19T12:57:49;21.95;;;18.07;;
30677;SDS011;17437;47.188;8.896;2022-08-19T13:00:21;23.35;;;19.50;;
30677;SDS011;17437;47.188;8.896;2022-08-19T13:02:53;22.67;;;16.62;;
30677;SDS011;17437;47.188;8.896;2022-08-19T13:05:25;18.82;;;15.85;;
30677;SDS011;17437;47.188;8.896;2022-08-19T13:07:58;19.70;;;16.23;;
30677;SDS011;17437;47.188;8.896;2022-08-19T13:10:32;17.37;;;15.48;;
30677;SDS011;17437;47.188;8.896;2022-08-19T13:13:06;18.60;;;16.70;;
30677;SDS011;17437;47.188;8.896;2022-08-19T13:15:39;18.02;;;16.15;;
30677;SDS011;17437;47.188;8.896;2022-08-19T13:18:13;17.60;;;15.32;;
30677;SDS011;17437;47.188;8.896;2022-08-19T13:20:44;24.23;;;20.00;;
30677;SDS011;17437;47.188;8.896;2022-08-19T13:23:17;18.98;;;17.07;;
30677;SDS011;17437;47.188;8.896;2022-08-19T13:25:56;21.30;;;19.00;;
30677;SDS011;17437;47.188;8.896;2022-08-19T13:28:28;21.57;;;18.55;;
30677;SDS011;17437;47.188;8.896;2022-08-19T13:31:02;19.42;;;17.20;;
30677;SDS011;17437;47.188;8.896;2022-08-19T13:33:51;30.80;;;23.35;;
30677;SDS011;17437;47.188;8.896;2022-08-19T13:36:22;24.37;;;20.08;;
30677;SDS011;17437;47.188;8.896;2022-08-19T13:38:54;36.03;;;25.70;;
30677;SDS011;17437;47.188;8.896;2022-08-19T13:41:26;30.50;;;23.47;;
30677;SDS011;17437;47.188;8.896;2022-08-19T13:43:59;27.58;;;21.70;;
30677;SDS011;17437;47.188;8.896;2022-08-19T13:46:31;29.90;;;19.82;;
30677;SDS011;17437;47.188;8.896;2022-08-19T13:49:02;25.77;;;21.20;;
30677;SDS011;17437;47.188;8.896;2022-08-19T13:51:34;22.00;;;19.35;;
30677;SDS011;17437;47.188;8.896;2022-08-19T13:54:05;23.12;;;19.87;;
30677;SDS011;17437;47.188;8.896;2022-08-19T13:56:40;23.50;;;19.27;;
30677;SDS011;17437;47.188;8.896;2022-08-19T13:59:12;30.68;;;23.30;;
30677;SDS011;17437;47.188;8.896;2022-08-19T14:01:44;25.77;;;22.48;;
30677;SDS011;17437;47.188;8.896;2022-08-19T14:04:15;24.77;;;21.10;;
30677;SDS011;17437;47.188;8.896;2022-08-19T14:06:47;26.02;;;22.35;;
30677;SDS011;17437;47.188;8.896;2022-08-19T14:09:18;25.02;;;21.80;;
30677;SDS011;17437;47.188;8.896;2022-08-19T14:11:50;20.32;;;18.23;;
30677;SDS011;17437;47.188;8.896;2022-08-19T14:14:21;23.40;;;19.05;;
30677;SDS011;17437;47.188;8.896;2022-08-19T14:16:53;21.77;;;18.77;;
30677;SDS011;17437;47.188;8.896;2022-08-19T14:19:24;20.37;;;17.67;;
30677;SDS011;17437;47.188;8.896;2022-08-19T14:21:57;20.00;;;17.82;;
30677;SDS011;17437;47.188;8.896;2022-08-19T14:24:29;19.65;;;17.02;;
30677;SDS011;17437;47.188;8.896;2022-08-19T14:27:00;19.90;;;17.70;;
30677;SDS011;17437;47.188;8.896;2022-08-19T14:29:33;20.00;;;18.00;;
30677;SDS011;17437;47.188;8.896;2022-08-19T14:32:05;21.68;;;17.65;;
30677;SDS011;17437;47.188;8.896;2022-08-19T14:34:38;20.27;;;18.07;;
30677;SDS011;17437;47.188;8.896;2022-08-19T14:37:09;21.35;;;18.42;;
30677;SDS011;17437;47.188;8.896;2022-08-19T14:39:43;22.50;;;20.00;;
30677;SDS011;17437;47.188;8.896;2022-08-19T14:42:14;21.30;;;18.23;;
30677;SDS011;17437;47.188;8.896;2022-08-19T14:44:47;23.30;;;20.52;;
30677;SDS011;17437;47.188;8.896;2022-08-19T14:47:18;23.73;;;21.23;;
30677;SDS011;17437;47.188;8.896;2022-08-19T14:49:50;23.07;;;20.68;;
30677;SDS011;17437;47.188;8.896;2022-08-19T14:52:22;21.93;;;19.65;;
30677;SDS011;17437;47.188;8.896;2022-08-19T14:54:53;20.40;;;18.32;;
30677;SDS011;17437;47.188;8.896;2022-08-19T14:57:25;23.05;;;20.60;;
30677;SDS011;17437;47.188;8.896;2022-08-19T14:59:56;28.50;;;23.85;;
30677;SDS011;17437;47.188;8.896;2022-08-19T15:02:28;29.75;;;23.60;;